Time;durP1;ratioP1;P1;durP2;ratioP2;P2;SDS_P1;SDS_P2;PMS_P1;PMS_P2;Temp;Humidity;BMP_temperature;BMP_pressure;BME280_temperature;BME280_humidity;BME280_pressure;Samples;Min_cycle;Max_cycle;Signal;HPM_P1;HPM_P2
2022/04/14 00:01:19;;;;;;;;;4.25;3.00;;;;;18.38;52.50;102038.94;5071893;28;8775;-70
2022/04/14 00:03:44;;;;;;;;;2.25;1.00;;;;;18.37;52.60;102032.75;5070918;28;9585;-69
2022/04/14 00:06:10;;;;;;;;;4.50;3.75;;;;;18.37;52.04;102027.47;5072297;28;8787;-69
2022/04/14 00:08:35;;;;;;;;;8.00;3.25;;;;;18.36;52.56;102028.34;5071917;28;8790;-69
2022/04/14 00:11:03;;;;;;;;;4.00;3.50;;;;;18.35;52.20;102030.13;5072429;28;8944;-69
2022/04/14 00:13:30;;;;;;;;;4.50;4.25;;;;;18.36;52.21;102025.72;5072640;28;8847;-69
2022/04/14 00:15:56;;;;;;;;;4.50;4.25;;;;;18.35;52.15;102032.75;5071372;28;9638;-69
2022/04/14 00:18:21;;;;;;;;;6.50;4.50;;;;;18.33;52.33;102031.84;5072753;28;10427;-70
2022/04/14 00:20:46;;;;;;;;;5.50;4.00;;;;;18.33;52.34;102025.69;5072305;28;8910;-69
2022/04/14 00:23:12;;;;;;;;;7.25;4.75;;;;;18.34;52.43;102030.97;5071677;28;8792;-69
2022/04/14 00:25:37;;;;;;;;;5.75;5.75;;;;;18.35;52.77;102021.28;5072401;28;8806;-69
2022/04/14 00:28:02;;;;;;;;;8.00;4.25;;;;;18.32;52.09;102019.50;5072107;28;9307;-69
2022/04/14 00:30:28;;;;;;;;;7.75;6.00;;;;;18.33;52.22;102020.41;5071468;28;8837;-69
2022/04/14 00:32:53;;;;;;;;;7.25;5.75;;;;;18.31;52.01;102014.19;5071960;28;9495;-69
2022/04/14 00:35:19;;;;;;;;;5.75;5.00;;;;;18.32;51.86;102015.97;5071056;28;8763;-69
2022/04/14 00:37:44;;;;;;;;;7.00;5.75;;;;;18.29;51.71;102019.50;5072014;28;8775;-70
2022/04/14 00:40:10;;;;;;;;;8.00;5.50;;;;;18.30;51.89;102008.03;5072174;28;8817;-70
2022/04/14 00:42:35;;;;;;;;;11.00;8.25;;;;;18.29;51.89;102016.84;5071355;28;9332;-69
2022/04/14 00:45:00;;;;;;;;;8.75;7.50;;;;;18.30;52.03;102015.97;5071605;28;8783;-69
2022/04/14 00:47:28;;;;;;;;;9.50;9.50;;;;;18.29;51.69;102013.31;5072082;28;8771;-70
2022/04/14 00:49:54;;;;;;;;;12.00;10.25;;;;;18.28;52.03;102017.72;5071398;28;8763;-69
2022/04/14 00:52:22;;;;;;;;;10.00;9.00;;;;;18.29;51.91;102011.56;5072084;28;9696;-70
2022/04/14 00:54:48;;;;;;;;;13.25;10.50;;;;;18.29;52.10;102008.03;5071673;28;8760;-69
2022/04/14 00:57:14;;;;;;;;;11.25;6.75;;;;;18.26;51.97;102000.94;5071436;28;9829;-69
2022/04/14 00:59:41;;;;;;;;;10.50;9.50;;;;;18.25;51.83;102003.59;5071769;28;11417;-70
2022/04/14 01:02:07;;;;;;;;;11.25;10.00;;;;;18.25;52.25;102009.75;5071501;28;9702;-69
2022/04/14 01:04:33;;;;;;;;;11.75;11.25;;;;;18.25;51.88;102012.41;5070886;28;9614;-70
2022/04/14 01:06:59;;;;;;;;;14.25;12.00;;;;;18.24;52.12;102017.66;5071235;28;9765;-69
2022/04/14 01:09:26;;;;;;;;;11.50;10.50;;;;;18.25;51.75;102022.97;5071792;28;8806;-69
2022/04/14 01:11:55;;;;;;;;;15.25;11.25;;;;;18.24;51.95;102023.84;5070330;28;10570;-70
2022/04/14 01:14:26;;;;;;;;;12.50;11.25;;;;;18.23;51.92;102023.81;5070959;28;9962;-70
2022/04/14 01:16:51;;;;;;;;;13.50;11.25;;;;;18.22;51.61;102027.34;5063147;28;9745;-70
2022/04/14 01:19:17;;;;;;;;;11.75;10.75;;;;;18.22;51.93;102024.72;5070959;28;9714;-70
2022/04/14 01:21:48;;;;;;;;;14.00;12.25;;;;;18.21;51.75;102023.81;5073676;28;8807;-70
2022/04/14 01:24:20;;;;;;;;;18.50;17.50;;;;;18.23;52.15;102035.28;5071493;28;8830;-69
2022/04/14 01:26:45;;;;;;;;;14.50;12.75;;;;;18.21;51.51;102030.88;5070719;28;9816;-70
2022/04/14 01:29:25;;;;;;;;;17.25;16.25;;;;;18.21;52.00;102025.59;5071318;28;9824;-71
2022/04/14 01:31:52;;;;;;;;;17.25;16.50;;;;;18.20;51.94;102029.09;5071415;28;8810;-70
2022/04/14 01:34:18;;;;;;;;;22.50;19.00;;;;;18.21;51.62;102039.69;5074292;28;9725;-70
2022/04/14 01:36:43;;;;;;;;;20.25;15.75;;;;;18.19;51.69;102038.78;5073654;28;9922;-69
2022/04/14 01:39:10;;;;;;;;;19.00;16.75;;;;;18.18;51.79;102044.06;5070797;28;8787;-69
2022/04/14 01:41:37;;;;;;;;;21.75;19.00;;;;;18.19;51.28;102040.53;5070735;28;8760;-69
2022/04/14 01:44:02;;;;;;;;;24.00;17.75;;;;;18.19;51.72;102037.88;5070319;28;10342;-70
2022/04/14 01:46:27;;;;;;;;;19.25;15.75;;;;;18.19;52.11;102040.53;5070395;28;9860;-69
2022/04/14 01:48:53;;;;;;;;;23.25;18.50;;;;;18.15;51.57;102034.31;5070672;28;8792;-70
2022/04/14 01:51:19;;;;;;;;;20.75;17.50;;;;;18.20;51.56;102037.00;5070689;28;8760;-69
2022/04/14 01:53:45;;;;;;;;;16.50;14.25;;;;;18.16;51.50;102037.84;5070203;28;8783;-70
2022/04/14 01:56:10;;;;;;;;;21.50;18.25;;;;;18.14;51.46;102039.63;5070826;28;9696;-70
2022/04/14 01:58:35;;;;;;;;;20.00;16.75;;;;;18.16;51.77;102043.13;5070589;28;8909;-70
2022/04/14 02:01:00;;;;;;;;;24.50;21.25;;;;;18.14;51.63;102045.78;5069305;28;9515;-71
2022/04/14 02:03:26;;;;;;;;;23.75;19.00;;;;;18.14;51.70;102045.78;5070526;28;8815;-70
2022/04/14 02:05:51;;;;;;;;;17.75;12.50;;;;;18.14;51.79;102048.44;5070457;28;8886;-70
2022/04/14 02:08:16;;;;;;;;;22.75;19.00;;;;;18.16;51.43;102051.06;5069828;28;8875;-72
2022/04/14 02:10:42;;;;;;;;;20.50;15.75;;;;;18.14;51.51;102056.38;5070580;28;8778;-69
2022/04/14 02:13:10;;;;;;;;;21.50;15.50;;;;;18.14;51.58;102052.81;5067432;28;8886;-69
2022/04/14 02:15:35;;;;;;;;;24.50;18.25;;;;;18.16;51.65;102053.72;5069588;28;8778;-70
2022/04/14 02:18:00;;;;;;;;;26.00;19.50;;;;;18.15;51.66;102049.28;5069498;28;10121;-70
2022/04/14 02:20:26;;;;;;;;;17.00;16.75;;;;;18.13;52.16;102051.03;5070414;28;8890;-70
2022/04/14 02:22:51;;;;;;;;;20.75;18.00;;;;;18.11;51.69;102037.81;5069286;28;8840;-70
2022/04/14 02:25:16;;;;;;;;;22.00;13.00;;;;;18.10;51.29;102043.09;5070289;28;8768;-70
2022/04/14 02:27:41;;;;;;;;;17.25;16.00;;;;;18.09;51.56;102042.19;5069587;28;8779;-70
2022/04/14 02:30:08;;;;;;;;;23.25;18.75;;;;;18.10;51.59;102045.75;5069351;28;8964;-70
2022/04/14 02:32:33;;;;;;;;;17.25;17.00;;;;;18.11;51.68;102050.16;5070578;28;8763;-69
2022/04/14 02:34:58;;;;;;;;;16.25;16.25;;;;;18.08;51.72;102051.00;5069168;28;9941;-71
2022/04/14 02:37:23;;;;;;;;;24.50;18.00;;;;;18.07;51.50;102046.56;5069969;28;9499;-69
2022/04/14 02:39:49;;;;;;;;;24.00;23.00;;;;;18.10;51.48;102053.66;5069911;28;8872;-70
2022/04/14 02:42:14;;;;;;;;;16.75;16.25;;;;;18.10;51.41;102051.03;5069276;28;8860;-70
2022/04/14 02:44:39;;;;;;;;;20.75;17.75;;;;;18.08;51.43;102050.09;5069906;28;8791;-70
2022/04/14 02:47:05;;;;;;;;;22.75;20.25;;;;;18.06;51.65;102062.44;5069575;28;8799;-70
2022/04/14 02:49:30;;;;;;;;;21.00;19.50;;;;;18.06;51.24;102047.47;5069651;28;8772;-70
2022/04/14 02:51:58;;;;;;;;;20.00;19.50;;;;;18.05;51.28;102053.63;5069716;28;8799;-70
2022/04/14 02:54:23;;;;;;;;;18.25;16.50;;;;;18.06;51.82;102044.81;5070096;28;8772;-70
2022/04/14 02:56:48;;;;;;;;;18.00;17.25;;;;;18.05;51.37;102042.16;5068885;28;9958;-70
2022/04/14 02:59:14;;;;;;;;;17.75;16.00;;;;;18.05;51.58;102050.06;5069919;28;8755;-70
2022/04/14 03:01:39;;;;;;;;;20.75;19.25;;;;;18.03;51.66;102046.56;5070040;28;8759;-70
2022/04/14 03:04:04;;;;;;;;;23.00;19.50;;;;;18.05;51.56;102050.97;5068887;28;8811;-70
2022/04/14 03:06:29;;;;;;;;;17.00;17.00;;;;;18.03;51.46;102055.38;5069614;28;8794;-70
2022/04/14 03:08:55;;;;;;;;;22.50;20.00;;;;;18.04;51.88;102053.59;5069631;28;8778;-70
2022/04/14 03:11:20;;;;;;;;;20.00;17.25;;;;;18.02;51.27;102052.69;5068841;28;8851;-70
2022/04/14 03:13:45;;;;;;;;;22.50;17.50;;;;;18.02;51.11;102052.69;5067005;28;9539;-70
2022/04/14 03:16:11;;;;;;;;;21.00;16.75;;;;;18.02;51.72;102058.88;5069876;28;8954;-69
2022/04/14 03:18:36;;;;;;;;;14.25;11.75;;;;;18.00;51.22;102057.94;5068826;28;9882;-70
2022/04/14 03:21:01;;;;;;;;;19.25;17.75;;;;;17.99;51.23;102060.59;5069532;28;8807;-69
2022/04/14 03:23:27;;;;;;;;;19.25;17.00;;;;;17.97;51.35;102050.00;5069737;28;9587;-70
2022/04/14 03:25:52;;;;;;;;;23.75;19.50;;;;;18.00;51.15;102059.69;5068765;28;9510;-70
2022/04/14 03:28:18;;;;;;;;;17.25;16.50;;;;;17.99;51.40;102056.19;5069542;28;9515;-70
2022/04/14 03:30:43;;;;;;;;;18.00;13.00;;;;;17.99;51.44;102055.31;5069350;28;8787;-71
2022/04/14 03:33:08;;;;;;;;;22.00;16.00;;;;;17.99;51.00;102056.19;5068653;28;8771;-70
2022/04/14 03:35:34;;;;;;;;;22.00;18.00;;;;;17.98;51.84;102051.78;5069576;28;8783;-71
2022/04/14 03:37:59;;;;;;;;;17.25;16.75;;;;;17.97;51.28;102054.41;5069902;28;8800;-70
2022/04/14 03:40:24;;;;;;;;;7.50;6.50;;;;;17.97;51.66;102050.00;5072649;28;8799;-70
2022/04/14 03:42:49;;;;;;;;;21.25;19.00;;;;;17.98;51.31;102061.47;5072932;28;8961;-70
2022/04/14 03:45:15;;;;;;;;;17.50;16.50;;;;;17.98;51.30;102053.53;5072202;28;8778;-70
2022/04/14 03:47:40;;;;;;;;;15.25;13.25;;;;;17.98;51.16;102058.81;5072696;28;8902;-70
2022/04/14 03:50:06;;;;;;;;;16.50;16.00;;;;;17.95;51.26;102057.03;5072909;28;8788;-70
2022/04/14 03:52:32;;;;;;;;;17.00;16.00;;;;;17.95;51.21;102056.16;5071667;28;8839;-71
2022/04/14 03:54:57;;;;;;;;;18.25;17.50;;;;;17.95;51.11;102058.78;5072784;28;9893;-71
2022/04/14 03:57:24;;;;;;;;;20.25;15.75;;;;;17.96;51.25;102063.22;5072881;28;8895;-70
2022/04/14 03:59:49;;;;;;;;;17.25;15.50;;;;;17.93;51.00;102055.22;5071908;28;8775;-69
2022/04/14 04:02:15;;;;;;;;;17.25;15.00;;;;;17.95;50.98;102058.78;5072613;28;10756;-70
2022/04/14 04:04:40;;;;;;;;;15.50;14.50;;;;;17.93;50.92;102057.88;5073120;28;8798;-70
2022/04/14 04:07:09;;;;;;;;;14.75;12.25;;;;;17.92;51.32;102058.75;5071404;28;8794;-70
2022/04/14 04:09:34;;;;;;;;;15.75;13.50;;;;;17.90;51.27;102066.66;5072872;28;8766;-70
2022/04/14 04:12:00;;;;;;;;;21.25;17.00;;;;;17.92;51.12;102067.53;5072145;28;9830;-70
2022/04/14 04:14:26;;;;;;;;;16.75;15.50;;;;;17.92;51.48;102064.06;5069377;28;8897;-70
2022/04/14 04:16:51;;;;;;;;;21.00;16.75;;;;;17.92;50.95;102067.53;5072031;28;9919;-69
2022/04/14 04:19:16;;;;;;;;;15.75;12.50;;;;;17.91;51.19;102065.81;5072545;28;8779;-69
2022/04/14 04:21:42;;;;;;;;;11.25;11.25;;;;;17.92;51.26;102071.97;5071616;28;8794;-69
2022/04/14 04:24:07;;;;;;;;;15.75;15.00;;;;;17.91;51.29;102064.91;5072197;28;9397;-70
2022/04/14 04:26:32;;;;;;;;;11.75;10.25;;;;;17.92;51.54;102064.06;5072384;28;9564;-69
2022/04/14 04:28:58;;;;;;;;;14.50;14.50;;;;;17.92;51.17;102064.06;5071528;28;8816;-70
2022/04/14 04:31:23;;;;;;;;;12.50;11.25;;;;;17.90;51.49;102061.38;5072130;28;8890;-70
2022/04/14 04:33:51;;;;;;;;;20.25;15.50;;;;;17.90;51.29;102064.03;5072193;28;8814;-70
2022/04/14 04:36:19;;;;;;;;;13.00;11.00;;;;;17.89;51.18;102067.53;5071804;28;8894;-70
2022/04/14 04:38:44;;;;;;;;;14.50;13.25;;;;;17.88;51.08;102076.34;5072252;28;9788;-70
2022/04/14 04:41:09;;;;;;;;;11.00;11.00;;;;;17.90;51.32;102073.69;5072325;28;9856;-70
2022/04/14 04:43:35;;;;;;;;;12.75;10.50;;;;;17.89;51.27;102083.38;5071560;28;8917;-69
2022/04/14 04:46:00;;;;;;;;;15.50;13.75;;;;;17.88;51.36;102085.13;5071805;28;8776;-69
2022/04/14 04:48:26;;;;;;;;;15.25;13.25;;;;;17.87;51.19;102085.13;5071491;28;8772;-70
2022/04/14 04:50:51;;;;;;;;;16.75;13.50;;;;;17.85;51.21;102086.84;5070838;28;8803;-69
2022/04/14 04:53:17;;;;;;;;;14.25;12.75;;;;;17.86;51.54;102092.16;5071888;28;9511;-70
2022/04/14 04:55:42;;;;;;;;;11.50;9.00;;;;;17.94;51.57;102088.72;5070961;28;9480;-69
2022/04/14 04:58:07;;;;;;;;;15.00;12.00;;;;;18.00;55.59;102081.72;5071271;28;8800;-71
2022/04/14 05:00:33;;;;;;;;;11.50;10.50;;;;;18.07;52.54;102095.94;5071212;28;8784;-70
2022/04/14 05:02:58;;;;;;;;;11.25;10.00;;;;;18.10;54.31;102085.38;5070198;28;8872;-70
2022/04/14 05:05:24;;;;;;;;;14.50;11.25;;;;;18.15;54.26;102089.84;5071374;28;8800;-71
2022/04/14 05:07:50;;;;;;;;;11.75;10.75;;;;;18.31;56.68;102094.41;5071085;28;8879;-72
2022/04/14 05:10:15;;;;;;;;;17.75;13.75;;;;;18.38;56.09;102103.28;5070582;28;8782;-72
2022/04/14 05:12:40;;;;;;;;;12.50;11.00;;;;;18.42;56.30;102107.72;5068547;28;8802;-68
2022/04/14 05:15:06;;;;;;;;;12.75;10.50;;;;;18.47;57.09;102106.03;5071066;28;8882;-68
2022/04/14 05:17:31;;;;;;;;;12.25;11.25;;;;;18.47;58.95;102113.06;5070482;28;8803;-68
2022/04/14 05:19:57;;;;;;;;;13.75;12.75;;;;;18.49;61.69;102113.94;5071037;28;9168;-67
2022/04/14 05:22:22;;;;;;;;;12.00;12.00;;;;;18.56;61.21;102119.34;5071359;28;8807;-68
2022/04/14 05:24:47;;;;;;;;;11.75;10.25;;;;;18.60;60.71;102120.25;5070054;28;8960;-68
2022/04/14 05:27:12;;;;;;;;;16.00;13.25;;;;;18.55;60.74;102117.59;5071030;28;8791;-69
2022/04/14 05:29:38;;;;;;;;;13.50;12.25;;;;;18.51;61.21;102122.81;5071024;28;8792;-68
2022/04/14 05:32:03;;;;;;;;;17.00;12.00;;;;;18.44;61.25;102118.34;5070238;28;8919;-69
2022/04/14 05:34:29;;;;;;;;;12.25;10.50;;;;;18.44;61.83;102120.97;5070682;28;8880;-69
2022/04/14 05:36:54;;;;;;;;;11.25;9.75;;;;;18.43;60.86;102121.84;5070862;28;8787;-70
2022/04/14 05:39:19;;;;;;;;;13.50;11.25;;;;;18.41;60.39;102124.47;5070345;28;8751;-68
2022/04/14 05:41:44;;;;;;;;;12.25;11.00;;;;;18.42;60.60;102122.69;5070334;28;8815;-69
2022/04/14 05:44:10;;;;;;;;;17.25;14.50;;;;;18.43;60.33;102127.13;5070572;28;8791;-69
2022/04/14 05:46:35;;;;;;;;;9.50;9.50;;;;;18.42;60.58;102125.34;5069891;28;9538;-68
2022/04/14 05:49:01;;;;;;;;;12.25;11.25;;;;;18.43;60.51;102132.41;5070861;28;8779;-68
2022/04/14 05:51:26;;;;;;;;;10.25;8.50;;;;;18.42;59.63;102128.00;5070666;28;8776;-69
2022/04/14 05:53:53;;;;;;;;;11.00;9.75;;;;;18.41;60.07;102127.09;5069768;28;8776;-68
2022/04/14 05:56:19;;;;;;;;;13.75;12.75;;;;;18.40;60.16;102130.63;5070675;28;8784;-67
2022/04/14 05:58:45;;;;;;;;;9.25;8.75;;;;;18.41;60.10;102131.53;5069803;28;9778;-68
2022/04/14 06:01:10;;;;;;;;;11.50;9.50;;;;;18.40;59.77;102130.63;5070818;28;9606;-68
2022/04/14 06:03:35;;;;;;;;;13.25;9.50;;;;;18.39;59.82;102131.50;5070567;28;8810;-68
2022/04/14 06:06:01;;;;;;;;;12.00;10.75;;;;;18.40;59.63;102129.75;5069419;28;8891;-68
2022/04/14 06:08:26;;;;;;;;;8.75;8.25;;;;;18.37;59.21;102124.44;5070525;28;8770;-69
2022/04/14 06:10:51;;;;;;;;;8.75;7.75;;;;;18.39;59.55;102134.16;5070109;28;9566;-69
2022/04/14 06:13:17;;;;;;;;;6.75;5.50;;;;;18.39;59.36;102138.53;5067193;28;8906;-69
2022/04/14 06:15:42;;;;;;;;;10.25;9.00;;;;;18.37;59.30;102129.72;5070690;28;8792;-69
2022/04/14 06:18:08;;;;;;;;;8.75;7.00;;;;;18.38;59.15;102128.84;5070104;28;8835;-68
2022/04/14 06:20:33;;;;;;;;;13.00;7.50;;;;;18.37;59.34;102135.88;5069709;28;8860;-68
2022/04/14 06:22:58;;;;;;;;;9.50;8.50;;;;;18.37;59.37;102143.81;5070026;28;8830;-69
2022/04/14 06:25:24;;;;;;;;;9.00;6.50;;;;;18.37;59.12;102137.66;5070420;28;8786;-68
2022/04/14 06:27:51;;;;;;;;;9.75;8.00;;;;;18.38;59.02;102144.69;5069488;28;8756;-69
2022/04/14 06:30:18;;;;;;;;;6.75;6.00;;;;;18.37;59.00;102148.25;5070324;28;8783;-68
2022/04/14 06:32:55;;;;;;;;;7.75;6.00;;;;;18.40;58.75;102148.25;5069871;28;9612;-69
2022/04/14 06:35:23;;;;;;;;;9.75;8.75;;;;;18.39;58.73;102149.13;5069703;28;9610;-70
2022/04/14 06:37:48;;;;;;;;;6.25;6.25;;;;;18.38;58.72;102150.88;5070061;28;10560;-69
2022/04/14 06:40:14;;;;;;;;;8.25;8.00;;;;;18.39;58.70;102152.66;5070202;28;9774;-69
2022/04/14 06:42:39;;;;;;;;;7.50;7.50;;;;;18.38;58.75;102163.22;5069263;28;8799;-68
2022/04/14 06:45:05;;;;;;;;;7.00;7.00;;;;;18.37;58.50;102161.47;5070045;28;8772;-68
2022/04/14 06:47:30;;;;;;;;;13.50;8.00;;;;;18.32;58.70;102159.66;5070002;28;8886;-67
2022/04/14 06:49:55;;;;;;;;;8.00;6.75;;;;;18.33;58.32;102158.75;5069426;28;8771;-68
2022/04/14 06:52:21;;;;;;;;;9.75;9.75;;;;;18.34;58.52;102163.19;5069918;28;8783;-70
2022/04/14 06:54:47;;;;;;;;;7.25;7.25;;;;;18.33;58.29;102173.75;5069738;28;8795;-68
2022/04/14 06:57:12;;;;;;;;;8.00;8.00;;;;;18.36;58.38;102165.84;5069241;28;9512;-69
2022/04/14 06:59:38;;;;;;;;;8.00;6.00;;;;;18.34;58.26;102160.53;5070109;28;8800;-69
2022/04/14 07:02:03;;;;;;;;;8.75;7.50;;;;;18.37;58.51;102169.38;5069127;28;8771;-68
2022/04/14 07:04:28;;;;;;;;;10.00;6.50;;;;;18.35;58.19;102172.91;5070219;28;8775;-69
2022/04/14 07:06:54;;;;;;;;;6.00;4.25;;;;;18.35;58.04;102175.53;5069823;28;8888;-69
2022/04/14 07:09:20;;;;;;;;;10.25;9.50;;;;;18.34;58.00;102176.41;5069258;28;8802;-69
2022/04/14 07:11:46;;;;;;;;;8.50;6.00;;;;;18.33;57.99;102179.91;5069369;28;8924;-68
2022/04/14 07:14:11;;;;;;;;;8.25;6.50;;;;;18.33;58.05;102179.91;5070093;28;9671;-68
2022/04/14 07:16:36;;;;;;;;;5.00;5.00;;;;;18.35;57.96;102185.22;5073321;28;8810;-68
2022/04/14 07:19:02;;;;;;;;;8.00;6.00;;;;;18.36;58.16;102179.06;5073810;28;8759;-68
2022/04/14 07:21:27;;;;;;;;;6.25;5.75;;;;;18.39;58.52;102176.47;5073632;28;8819;-69
2022/04/14 07:23:52;;;;;;;;;6.00;6.00;;;;;18.41;58.36;102180.00;5072919;28;8823;-69
2022/04/14 07:26:18;;;;;;;;;6.00;6.00;;;;;18.39;57.96;102180.84;5073561;28;8784;-69
2022/04/14 07:28:43;;;;;;;;;8.00;5.50;;;;;18.40;58.63;102180.00;5073792;28;8822;-68
2022/04/14 07:31:08;;;;;;;;;3.00;3.00;;;;;18.40;57.94;102177.34;5072468;28;8792;-69
2022/04/14 07:33:34;;;;;;;;;5.00;4.50;;;;;18.40;57.94;102174.72;5073107;28;8779;-68
2022/04/14 07:35:59;;;;;;;;;9.00;6.25;;;;;18.40;57.92;102177.34;5072937;28;8764;-68
2022/04/14 07:38:24;;;;;;;;;6.00;5.00;;;;;18.41;58.04;102181.78;5072828;28;8768;-68
2022/04/14 07:40:50;;;;;;;;;4.00;4.00;;;;;18.44;58.30;102184.44;5073285;28;8786;-68
2022/04/14 07:43:15;;;;;;;;;9.25;8.00;;;;;18.45;58.11;102188.84;5073190;28;8787;-68
2022/04/14 07:45:42;;;;;;;;;7.75;5.00;;;;;18.44;57.71;102198.56;5072700;28;8775;-68
2022/04/14 07:48:08;;;;;;;;;4.25;4.25;;;;;18.41;58.43;102198.50;5073420;28;8826;-68
2022/04/14 07:50:34;;;;;;;;;8.75;8.75;;;;;18.45;57.92;102199.41;5073349;28;10431;-68
2022/04/14 07:52:59;;;;;;;;;5.50;5.50;;;;;18.45;57.81;102194.13;5072202;28;9693;-68
2022/04/14 07:55:28;;;;;;;;;5.75;5.75;;;;;18.47;57.99;102198.59;5073341;28;8787;-68
2022/04/14 07:57:56;;;;;;;;;4.75;4.75;;;;;18.49;57.73;102202.13;5073229;28;8767;-68
2022/04/14 08:00:22;;;;;;;;;5.25;4.50;;;;;18.46;57.96;102188.88;5072544;28;9449;-68
2022/04/14 08:02:58;;;;;;;;;5.50;5.50;;;;;18.47;57.96;102190.66;5072527;28;9403;-69
2022/04/14 08:05:48;;;;;;;;;5.50;5.00;;;;;18.52;58.18;102183.66;5072360;28;8795;-69
2022/04/14 08:08:16;;;;;;;;;4.50;4.50;;;;;18.49;58.06;102183.59;5073229;28;9408;-69
2022/04/14 08:10:43;;;;;;;;;8.00;4.00;;;;;18.50;57.94;102192.44;5073034;28;10366;-69
2022/04/14 08:13:08;;;;;;;;;5.50;5.50;;;;;18.52;57.77;102190.75;5069669;28;9617;-69
2022/04/14 08:15:38;;;;;;;;;4.50;4.50;;;;;18.50;57.70;102190.69;5072978;28;9368;-68
2022/04/14 08:18:06;;;;;;;;;4.25;4.25;;;;;18.54;57.56;102194.28;5072263;28;8799;-68
2022/04/14 08:20:31;;;;;;;;;4.25;4.25;;;;;18.54;57.75;102191.63;5072061;28;9525;-68
2022/04/14 08:22:59;;;;;;;;;4.50;4.50;;;;;18.55;57.79;102189.00;5072195;28;9677;-68
2022/04/14 08:25:30;;;;;;;;;4.50;4.50;;;;;18.55;57.87;102188.13;5071578;28;8756;-68
2022/04/14 08:27:58;;;;;;;;;6.25;5.75;;;;;18.56;57.58;102197.84;5071577;28;9581;-68
2022/04/14 08:30:25;;;;;;;;;4.00;4.00;;;;;18.57;58.23;102191.66;5072765;28;9678;-68
2022/04/14 08:32:51;;;;;;;;;6.75;4.50;;;;;18.60;57.86;102195.22;5072189;28;9353;-68
2022/04/14 08:35:19;;;;;;;;;3.50;3.50;;;;;18.60;57.67;102195.22;5071976;28;9377;-68
2022/04/14 08:37:44;;;;;;;;;5.00;5.00;;;;;18.61;57.69;102198.75;5072282;28;9565;-68
2022/04/14 08:40:12;;;;;;;;;4.25;4.25;;;;;18.63;57.86;102189.09;5072579;28;9592;-69
2022/04/14 08:42:41;;;;;;;;;4.75;3.75;;;;;18.66;58.08;102181.19;5071756;28;8807;-69
2022/04/14 08:45:10;;;;;;;;;4.00;4.00;;;;;18.62;57.75;102174.09;5072291;28;9392;-69
2022/04/14 08:47:39;;;;;;;;;5.00;5.00;;;;;18.67;58.01;102167.94;5071401;28;9537;-68
2022/04/14 08:50:06;;;;;;;;;3.33;2.00;;;;;18.71;57.82;102167.09;5072034;28;9445;-68
2022/04/14 08:52:34;;;;;;;;;5.75;4.75;;;;;18.72;57.55;102160.94;5072031;28;9215;-69
2022/04/14 08:55:02;;;;;;;;;5.00;3.50;;;;;18.70;57.74;102165.34;5071370;28;9406;-69
2022/04/14 08:57:27;;;;;;;;;3.75;2.25;;;;;18.73;57.63;102160.09;5072314;28;9496;-69
2022/04/14 08:59:54;;;;;;;;;5.50;4.75;;;;;18.77;57.66;102167.19;5071701;28;9464;-68
2022/04/14 09:02:23;;;;;;;;;3.50;3.50;;;;;18.77;57.82;102164.53;5071434;28;8853;-68
2022/04/14 09:04:49;;;;;;;;;2.50;2.50;;;;;18.79;57.77;102169.81;5071751;28;9393;-68
2022/04/14 09:07:15;;;;;;;;;4.75;4.00;;;;;18.81;57.91;102161.06;5071872;28;9415;-69
2022/04/14 09:09:41;;;;;;;;;4.00;4.00;;;;;18.81;57.68;102165.44;5070893;28;10152;-68
2022/04/14 09:12:06;;;;;;;;;3.50;3.50;;;;;18.83;57.64;102168.97;5071266;28;9545;-68
2022/04/14 09:14:34;;;;;;;;;4.50;4.50;;;;;18.82;57.59;102167.19;5069401;28;8776;-68
2022/04/14 09:17:01;;;;;;;;;6.25;5.50;;;;;18.83;57.85;102175.16;5070690;28;8876;-68
2022/04/14 09:19:29;;;;;;;;;4.00;3.00;;;;;18.86;57.55;102184.03;5071450;28;9469;-67
2022/04/14 09:22:02;;;;;;;;;3.25;2.50;;;;;18.85;57.77;102190.19;5071573;28;10166;-67
2022/04/14 09:24:51;;;;;;;;;5.25;3.50;;;;;18.86;57.44;102197.25;5069933;28;9488;-67
2022/04/14 09:27:26;;;;;;;;;2.00;2.00;;;;;18.88;57.72;102204.31;5071441;28;9477;-67
2022/04/14 09:29:53;;;;;;;;;2.00;2.00;;;;;18.88;57.91;102208.72;5070454;28;9307;-67
2022/04/14 09:32:36;;;;;;;;;3.33;3.33;;;;;18.89;57.82;102210.50;5071442;28;9285;-68
2022/04/14 09:35:04;;;;;;;;;4.00;4.00;;;;;18.92;57.68;102213.19;5070965;28;9317;-68
2022/04/14 09:37:31;;;;;;;;;4.25;3.50;;;;;18.93;58.13;102213.22;5070109;28;9372;-68
2022/04/14 09:40:02;;;;;;;;;2.33;2.33;;;;;18.94;57.73;102214.94;5070751;28;10050;-68
2022/04/14 09:42:33;;;;;;;;;3.00;3.00;;;;;18.95;57.77;102216.75;5070947;28;9410;-68
2022/04/14 09:45:18;;;;;;;;;3.00;3.00;;;;;18.99;57.76;102221.19;5070423;28;9365;-68
2022/04/14 09:47:44;;;;;;;;;2.33;2.33;;;;;18.99;57.82;102220.28;5070864;28;9390;-69
2022/04/14 09:50:29;;;;;;;;;4.25;3.00;;;;;19.00;57.71;102216.78;5070848;28;9377;-68
2022/04/14 09:53:02;;;;;;;;;2.00;2.00;;;;;19.03;57.90;102219.44;5070298;28;8775;-68
2022/04/14 09:55:28;;;;;;;;;2.00;2.00;;;;;19.05;57.86;102220.34;5070888;28;9299;-68
2022/04/14 09:58:22;;;;;;;;;4.00;4.00;;;;;19.03;58.14;102215.03;5070144;28;9297;-70
2022/04/14 10:00:52;;;;;;;;;2.00;2.00;;;;;19.04;58.31;102223.88;5070938;28;9378;-68
2022/04/14 10:03:17;;;;;;;;;4.00;2.75;;;;;19.05;57.91;102223.88;5070606;28;9446;-69
2022/04/14 10:05:43;;;;;;;;;3.25;3.25;;;;;19.05;58.04;102223.88;5070170;28;9469;-68
2022/04/14 10:08:09;;;;;;;;;3.00;2.00;;;;;19.09;57.94;102216.84;5070846;28;8806;-68
2022/04/14 10:10:36;;;;;;;;;6.00;2.75;;;;;19.12;58.04;102216.91;5070773;28;9953;-68
2022/04/14 10:13:05;;;;;;;;;2.00;2.00;;;;;19.09;58.09;102217.75;5066841;28;8795;-68
2022/04/14 10:15:31;;;;;;;;;0.00;0.00;;;;;19.10;58.15;102216.88;5071023;28;9223;-68
2022/04/14 10:17:59;;;;;;;;;2.00;2.00;;;;;19.12;58.14;102223.06;5070093;28;9278;-68
2022/04/14 10:20:25;;;;;;;;;3.00;3.00;;;;;19.13;58.04;102223.94;5069923;28;9238;-67
2022/04/14 10:22:51;;;;;;;;;2.00;2.00;;;;;19.13;58.19;102224.84;5070373;28;9338;-68
2022/04/14 10:25:16;;;;;;;;;2.00;2.00;;;;;19.14;58.06;102225.72;5070519;28;8779;-68
2022/04/14 10:27:41;;;;;;;;;2.00;2.00;;;;;19.14;58.21;102226.63;5069976;28;8779;-68
2022/04/14 10:30:07;;;;;;;;;2.00;2.00;;;;;19.16;58.29;102226.59;5070345;28;8894;-68
2022/04/14 10:32:34;;;;;;;;;3.00;2.00;;;;;19.18;58.25;102225.78;5070447;28;8852;-68
2022/04/14 10:35:02;;;;;;;;;3.00;2.00;;;;;19.19;58.28;102231.97;5069643;28;8783;-68
2022/04/14 10:37:34;;;;;;;;;1.00;1.00;;;;;19.22;57.93;102229.31;5070521;28;9233;-68
2022/04/14 10:40:00;;;;;;;;;2.67;1.00;;;;;19.24;57.65;102230.22;5070001;28;9260;-67
2022/04/14 10:42:27;;;;;;;;;1.25;1.25;;;;;19.25;57.86;102227.59;5069542;28;9486;-68
2022/04/14 10:44:54;;;;;;;;;2.00;2.00;;;;;19.25;58.14;102230.25;5069808;28;9445;-68
2022/04/14 10:47:33;;;;;;;;;2.00;2.00;;;;;19.24;57.99;102220.50;5068583;28;9310;-68
2022/04/14 10:49:58;;;;;;;;;2.00;2.00;;;;;19.26;58.18;102226.72;5069145;28;9483;-68
2022/04/14 10:52:25;;;;;;;;;2.25;1.75;;;;;19.27;58.10;102231.13;5070201;28;9391;-68
2022/04/14 10:55:01;;;;;;;;;1.75;1.00;;;;;19.27;57.97;102227.63;5069284;28;8780;-68
2022/04/14 10:57:39;;;;;;;;;3.25;2.75;;;;;19.29;58.28;102223.19;5070258;28;9635;-68
2022/04/14 11:00:19;;;;;;;;;1.00;1.00;;;;;19.30;58.12;102224.97;5069425;28;9659;-68
2022/04/14 11:03:03;;;;;;;;;2.00;2.00;;;;;19.32;57.78;102233.81;5069318;28;9410;-68
2022/04/14 11:05:46;;;;;;;;;1.75;1.75;;;;;19.32;57.86;102228.50;5069938;28;9562;-68
2022/04/14 11:08:30;;;;;;;;;4.00;3.00;;;;;19.34;57.98;102226.78;5069730;28;9494;-68
2022/04/14 11:11:01;;;;;;;;;1.75;1.75;;;;;19.36;57.73;102238.25;5069908;28;9406;-68
2022/04/14 11:13:52;;;;;;;;;1.00;1.00;;;;;19.37;57.74;102224.16;5067211;28;9385;-68
2022/04/14 11:16:47;;;;;;;;;2.00;2.00;;;;;19.38;57.84;102231.22;5069380;28;9263;-67
2022/04/14 11:19:19;;;;;;;;;1.50;1.50;;;;;19.40;57.90;102226.81;5070018;28;9469;-68
2022/04/14 11:22:05;;;;;;;;;1.00;1.00;;;;;19.40;57.77;102224.16;5069528;28;9451;-68
2022/04/14 11:24:36;;;;;;;;;0.75;0.75;;;;;19.44;57.82;102225.09;5069227;28;9496;-68
2022/04/14 11:27:17;;;;;;;;;2.25;1.00;;;;;19.43;57.54;102215.38;5069487;28;9396;-68